sensor_id;sensor_type;location;lat;lon;timestamp;P1;durP1;ratioP1;P2;durP2;ratioP2
28447;SDS011;15675;52.870;-1.416;2023-04-07T00:00:18;12.13;;;2.17;;
28447;SDS011;15675;52.870;-1.416;2023-04-07T00:02:44;15.35;;;1.98;;
28447;SDS011;15675;52.870;-1.416;2023-04-07T00:05:09;10.88;;;2.97;;
28447;SDS011;15675;52.870;-1.416;2023-04-07T00:07:35;9.18;;;2.42;;
28447;SDS011;15675;52.870;-1.416;2023-04-07T00:10:00;16.30;;;2.15;;
28447;SDS011;15675;52.870;-1.416;2023-04-07T00:12:26;13.73;;;2.20;;
28447;SDS011;15675;52.870;-1.416;2023-04-07T00:14:51;11.27;;;2.30;;
28447;SDS011;15675;52.870;-1.416;2023-04-07T00:17:16;11.65;;;2.05;;
28447;SDS011;15675;52.870;-1.416;2023-04-07T00:19:42;11.13;;;2.17;;
28447;SDS011;15675;52.870;-1.416;2023-04-07T00:22:08;12.18;;;2.00;;
28447;SDS011;15675;52.870;-1.416;2023-04-07T00:24:34;14.10;;;2.47;;
28447;SDS011;15675;52.870;-1.416;2023-04-07T00:26:59;10.63;;;2.38;;
28447;SDS011;15675;52.870;-1.416;2023-04-07T00:29:25;24.73;;;3.17;;
28447;SDS011;15675;52.870;-1.416;2023-04-07T00:31:51;19.13;;;2.67;;
28447;SDS011;15675;52.870;-1.416;2023-04-07T00:34:16;15.63;;;2.75;;
28447;SDS011;15675;52.870;-1.416;2023-04-07T00:36:42;11.75;;;2.47;;
28447;SDS011;15675;52.870;-1.416;2023-04-07T00:39:07;10.18;;;2.20;;
28447;SDS011;15675;52.870;-1.416;2023-04-07T00:41:33;17.80;;;2.58;;
28447;SDS011;15675;52.870;-1.416;2023-04-07T00:44:00;13.73;;;2.67;;
28447;SDS011;15675;52.870;-1.416;2023-04-07T00:46:26;15.88;;;2.83;;
28447;SDS011;15675;52.870;-1.416;2023-04-07T00:48:52;14.13;;;2.60;;
28447;SDS011;15675;52.870;-1.416;2023-04-07T00:51:21;17.27;;;2.83;;
28447;SDS011;15675;52.870;-1.416;2023-04-07T00:53:47;11.93;;;3.28;;
28447;SDS011;15675;52.870;-1.416;2023-04-07T00:56:13;13.52;;;2.88;;
28447;SDS011;15675;52.870;-1.416;2023-04-07T00:58:39;14.05;;;2.55;;
28447;SDS011;15675;52.870;-1.416;2023-04-07T01:01:12;8.50;;;2.67;;
28447;SDS011;15675;52.870;-1.416;2023-04-07T01:03:54;20.75;;;3.20;;
28447;SDS011;15675;52.870;-1.416;2023-04-07T01:06:23;15.55;;;3.35;;
28447;SDS011;15675;52.870;-1.416;2023-04-07T01:09:14;10.77;;;2.42;;
28447;SDS011;15675;52.870;-1.416;2023-04-07T01:15:07;12.20;;;2.03;;
28447;SDS011;15675;52.870;-1.416;2023-04-07T01:17:35;13.50;;;2.60;;
28447;SDS011;15675;52.870;-1.416;2023-04-07T01:20:05;10.07;;;1.92;;
28447;SDS011;15675;52.870;-1.416;2023-04-07T01:22:39;9.38;;;2.38;;
28447;SDS011;15675;52.870;-1.416;2023-04-07T01:32:40;12.27;;;2.67;;
28447;SDS011;15675;52.870;-1.416;2023-04-07T01:35:09;13.13;;;3.13;;
28447;SDS011;15675;52.870;-1.416;2023-04-07T01:37:37;15.05;;;2.47;;
28447;SDS011;15675;52.870;-1.416;2023-04-07T01:40:03;13.32;;;2.70;;
28447;SDS011;15675;52.870;-1.416;2023-04-07T01:42:32;12.13;;;3.15;;
28447;SDS011;15675;52.870;-1.416;2023-04-07T01:44:58;14.60;;;2.83;;
28447;SDS011;15675;52.870;-1.416;2023-04-07T01:47:26;8.40;;;2.75;;
28447;SDS011;15675;52.870;-1.416;2023-04-07T01:49:56;13.68;;;3.53;;
28447;SDS011;15675;52.870;-1.416;2023-04-07T01:52:23;18.75;;;2.83;;
28447;SDS011;15675;52.870;-1.416;2023-04-07T01:54:51;14.75;;;3.13;;
28447;SDS011;15675;52.870;-1.416;2023-04-07T01:57:18;16.58;;;3.97;;
28447;SDS011;15675;52.870;-1.416;2023-04-07T01:59:43;13.43;;;2.97;;
28447;SDS011;15675;52.870;-1.416;2023-04-07T02:02:09;10.00;;;2.78;;
28447;SDS011;15675;52.870;-1.416;2023-04-07T02:04:36;25.27;;;4.00;;
28447;SDS011;15675;52.870;-1.416;2023-04-07T02:07:21;12.90;;;3.60;;
28447;SDS011;15675;52.870;-1.416;2023-04-07T02:09:55;14.13;;;3.72;;
28447;SDS011;15675;52.870;-1.416;2023-04-07T02:12:28;13.38;;;3.38;;
28447;SDS011;15675;52.870;-1.416;2023-04-07T02:14:55;17.25;;;4.13;;
28447;SDS011;15675;52.870;-1.416;2023-04-07T02:17:22;13.98;;;2.97;;
28447;SDS011;15675;52.870;-1.416;2023-04-07T02:19:51;14.77;;;3.58;;
28447;SDS011;15675;52.870;-1.416;2023-04-07T02:22:18;15.35;;;4.05;;
28447;SDS011;15675;52.870;-1.416;2023-04-07T02:24:43;17.85;;;4.45;;
28447;SDS011;15675;52.870;-1.416;2023-04-07T02:27:09;13.15;;;3.17;;
28447;SDS011;15675;52.870;-1.416;2023-04-07T02:29:34;19.50;;;3.47;;
28447;SDS011;15675;52.870;-1.416;2023-04-07T02:32:00;14.75;;;3.38;;
28447;SDS011;15675;52.870;-1.416;2023-04-07T02:34:25;12.10;;;3.67;;
28447;SDS011;15675;52.870;-1.416;2023-04-07T02:36:51;24.95;;;4.70;;
28447;SDS011;15675;52.870;-1.416;2023-04-07T02:39:17;14.90;;;3.42;;
28447;SDS011;15675;52.870;-1.416;2023-04-07T02:41:42;22.15;;;4.15;;
28447;SDS011;15675;52.870;-1.416;2023-04-07T02:44:08;22.67;;;4.63;;
28447;SDS011;15675;52.870;-1.416;2023-04-07T02:46:33;16.98;;;2.92;;
28447;SDS011;15675;52.870;-1.416;2023-04-07T02:48:59;24.35;;;3.80;;
28447;SDS011;15675;52.870;-1.416;2023-04-07T02:51:24;15.82;;;3.13;;
28447;SDS011;15675;52.870;-1.416;2023-04-07T02:53:51;19.63;;;3.35;;
28447;SDS011;15675;52.870;-1.416;2023-04-07T02:56:16;20.75;;;4.07;;
28447;SDS011;15675;52.870;-1.416;2023-04-07T02:58:42;16.52;;;3.88;;
28447;SDS011;15675;52.870;-1.416;2023-04-07T03:01:08;21.55;;;3.95;;
28447;SDS011;15675;52.870;-1.416;2023-04-07T03:03:33;15.18;;;3.65;;
28447;SDS011;15675;52.870;-1.416;2023-04-07T03:05:59;23.58;;;4.10;;
28447;SDS011;15675;52.870;-1.416;2023-04-07T03:08:25;19.40;;;4.38;;
28447;SDS011;15675;52.870;-1.416;2023-04-07T03:10:51;15.90;;;3.78;;
28447;SDS011;15675;52.870;-1.416;2023-04-07T03:13:16;17.88;;;4.22;;
28447;SDS011;15675;52.870;-1.416;2023-04-07T03:15:43;20.50;;;3.75;;
28447;SDS011;15675;52.870;-1.416;2023-04-07T03:18:09;14.30;;;3.60;;
28447;SDS011;15675;52.870;-1.416;2023-04-07T03:20:35;16.60;;;4.03;;
28447;SDS011;15675;52.870;-1.416;2023-04-07T03:23:01;12.52;;;3.72;;
28447;SDS011;15675;52.870;-1.416;2023-04-07T03:25:27;30.58;;;4.45;;
28447;SDS011;15675;52.870;-1.416;2023-04-07T03:27:53;17.00;;;3.85;;
28447;SDS011;15675;52.870;-1.416;2023-04-07T03:30:19;18.27;;;3.65;;
28447;SDS011;15675;52.870;-1.416;2023-04-07T03:32:44;24.23;;;3.72;;
28447;SDS011;15675;52.870;-1.416;2023-04-07T03:35:10;15.75;;;4.47;;
28447;SDS011;15675;52.870;-1.416;2023-04-07T03:37:35;12.95;;;3.45;;
28447;SDS011;15675;52.870;-1.416;2023-04-07T03:40:01;19.77;;;4.03;;
28447;SDS011;15675;52.870;-1.416;2023-04-07T03:42:27;15.98;;;4.70;;
28447;SDS011;15675;52.870;-1.416;2023-04-07T03:44:52;8.98;;;3.92;;
28447;SDS011;15675;52.870;-1.416;2023-04-07T03:47:18;23.35;;;5.35;;
28447;SDS011;15675;52.870;-1.416;2023-04-07T03:49:43;17.95;;;4.65;;
28447;SDS011;15675;52.870;-1.416;2023-04-07T03:52:09;25.58;;;5.35;;
28447;SDS011;15675;52.870;-1.416;2023-04-07T03:54:35;21.75;;;5.35;;
28447;SDS011;15675;52.870;-1.416;2023-04-07T03:57:00;15.00;;;4.80;;
28447;SDS011;15675;52.870;-1.416;2023-04-07T03:59:27;21.20;;;5.45;;
28447;SDS011;15675;52.870;-1.416;2023-04-07T04:01:52;23.13;;;5.07;;
28447;SDS011;15675;52.870;-1.416;2023-04-07T04:04:18;19.98;;;5.60;;
28447;SDS011;15675;52.870;-1.416;2023-04-07T04:06:43;21.83;;;5.47;;
28447;SDS011;15675;52.870;-1.416;2023-04-07T04:09:09;15.45;;;4.60;;
28447;SDS011;15675;52.870;-1.416;2023-04-07T04:11:35;22.92;;;4.70;;
28447;SDS011;15675;52.870;-1.416;2023-04-07T04:14:00;17.92;;;4.63;;
28447;SDS011;15675;52.870;-1.416;2023-04-07T04:16:26;22.52;;;4.90;;
28447;SDS011;15675;52.870;-1.416;2023-04-07T04:18:51;17.25;;;5.93;;
28447;SDS011;15675;52.870;-1.416;2023-04-07T04:21:17;21.30;;;5.35;;
28447;SDS011;15675;52.870;-1.416;2023-04-07T04:23:42;25.40;;;4.85;;
28447;SDS011;15675;52.870;-1.416;2023-04-07T04:26:08;21.25;;;4.88;;
28447;SDS011;15675;52.870;-1.416;2023-04-07T04:28:33;18.33;;;5.85;;
28447;SDS011;15675;52.870;-1.416;2023-04-07T04:30:59;19.80;;;5.75;;
28447;SDS011;15675;52.870;-1.416;2023-04-07T04:33:25;23.77;;;5.68;;
28447;SDS011;15675;52.870;-1.416;2023-04-07T04:35:51;20.00;;;5.15;;
28447;SDS011;15675;52.870;-1.416;2023-04-07T04:38:16;24.42;;;6.22;;
28447;SDS011;15675;52.870;-1.416;2023-04-07T04:40:42;15.50;;;5.07;;
28447;SDS011;15675;52.870;-1.416;2023-04-07T04:43:07;24.33;;;5.72;;
28447;SDS011;15675;52.870;-1.416;2023-04-07T04:45:33;13.63;;;4.60;;
28447;SDS011;15675;52.870;-1.416;2023-04-07T04:47:59;24.52;;;7.10;;
28447;SDS011;15675;52.870;-1.416;2023-04-07T04:50:25;23.70;;;5.82;;
28447;SDS011;15675;52.870;-1.416;2023-04-07T04:52:51;12.95;;;5.45;;
28447;SDS011;15675;52.870;-1.416;2023-04-07T04:55:17;16.23;;;5.45;;
28447;SDS011;15675;52.870;-1.416;2023-04-07T04:57:42;22.60;;;5.70;;
28447;SDS011;15675;52.870;-1.416;2023-04-07T05:00:08;15.63;;;5.38;;
28447;SDS011;15675;52.870;-1.416;2023-04-07T05:02:34;23.15;;;5.43;;
28447;SDS011;15675;52.870;-1.416;2023-04-07T05:05:00;21.33;;;5.10;;
28447;SDS011;15675;52.870;-1.416;2023-04-07T05:07:26;19.95;;;5.57;;
28447;SDS011;15675;52.870;-1.416;2023-04-07T05:09:51;20.83;;;5.82;;
28447;SDS011;15675;52.870;-1.416;2023-04-07T05:12:17;17.65;;;6.18;;
28447;SDS011;15675;52.870;-1.416;2023-04-07T05:14:43;22.67;;;5.80;;
28447;SDS011;15675;52.870;-1.416;2023-04-07T05:17:08;26.98;;;5.50;;
28447;SDS011;15675;52.870;-1.416;2023-04-07T05:19:34;17.38;;;5.80;;
28447;SDS011;15675;52.870;-1.416;2023-04-07T05:21:59;20.98;;;5.82;;
28447;SDS011;15675;52.870;-1.416;2023-04-07T05:24:25;16.23;;;5.18;;
28447;SDS011;15675;52.870;-1.416;2023-04-07T05:26:52;20.08;;;5.68;;
28447;SDS011;15675;52.870;-1.416;2023-04-07T05:29:18;16.25;;;5.93;;
28447;SDS011;15675;52.870;-1.416;2023-04-07T05:31:43;21.25;;;5.93;;
28447;SDS011;15675;52.870;-1.416;2023-04-07T05:34:09;14.80;;;5.50;;
28447;SDS011;15675;52.870;-1.416;2023-04-07T05:36:35;15.82;;;5.53;;
28447;SDS011;15675;52.870;-1.416;2023-04-07T05:39:00;18.45;;;6.50;;
28447;SDS011;15675;52.870;-1.416;2023-04-07T05:41:26;17.38;;;6.53;;
28447;SDS011;15675;52.870;-1.416;2023-04-07T05:43:51;22.60;;;6.65;;
28447;SDS011;15675;52.870;-1.416;2023-04-07T05:46:17;23.85;;;6.82;;
28447;SDS011;15675;52.870;-1.416;2023-04-07T05:48:42;23.90;;;6.75;;
28447;SDS011;15675;52.870;-1.416;2023-04-07T05:51:08;19.38;;;5.55;;
28447;SDS011;15675;52.870;-1.416;2023-04-07T05:53:33;28.35;;;6.78;;
28447;SDS011;15675;52.870;-1.416;2023-04-07T05:55:59;22.48;;;6.55;;
28447;SDS011;15675;52.870;-1.416;2023-04-07T05:58:24;21.13;;;6.43;;
28447;SDS011;15675;52.870;-1.416;2023-04-07T06:00:50;15.88;;;5.97;;
28447;SDS011;15675;52.870;-1.416;2023-04-07T06:03:15;18.75;;;5.82;;
28447;SDS011;15675;52.870;-1.416;2023-04-07T06:05:41;18.15;;;6.40;;
28447;SDS011;15675;52.870;-1.416;2023-04-07T06:08:10;18.25;;;5.82;;
28447;SDS011;15675;52.870;-1.416;2023-04-07T06:10:36;14.48;;;6.15;;
28447;SDS011;15675;52.870;-1.416;2023-04-07T06:13:01;31.73;;;7.25;;
28447;SDS011;15675;52.870;-1.416;2023-04-07T06:15:27;16.40;;;6.15;;
28447;SDS011;15675;52.870;-1.416;2023-04-07T06:17:52;24.48;;;5.95;;
28447;SDS011;15675;52.870;-1.416;2023-04-07T06:20:17;16.98;;;5.88;;
28447;SDS011;15675;52.870;-1.416;2023-04-07T06:22:45;20.75;;;6.30;;
28447;SDS011;15675;52.870;-1.416;2023-04-07T06:25:11;20.80;;;5.60;;
28447;SDS011;15675;52.870;-1.416;2023-04-07T06:27:37;20.90;;;5.78;;
28447;SDS011;15675;52.870;-1.416;2023-04-07T06:30:02;16.42;;;5.95;;
28447;SDS011;15675;52.870;-1.416;2023-04-07T06:32:28;18.63;;;5.38;;
28447;SDS011;15675;52.870;-1.416;2023-04-07T06:34:53;17.58;;;5.80;;
28447;SDS011;15675;52.870;-1.416;2023-04-07T06:37:19;15.73;;;5.80;;
28447;SDS011;15675;52.870;-1.416;2023-04-07T06:39:45;25.20;;;6.85;;
28447;SDS011;15675;52.870;-1.416;2023-04-07T06:42:10;17.98;;;5.78;;
28447;SDS011;15675;52.870;-1.416;2023-04-07T06:44:36;10.98;;;5.22;;
28447;SDS011;15675;52.870;-1.416;2023-04-07T06:47:01;14.88;;;5.63;;
28447;SDS011;15675;52.870;-1.416;2023-04-07T06:49:26;11.98;;;5.60;;
28447;SDS011;15675;52.870;-1.416;2023-04-07T06:51:52;21.88;;;5.22;;
28447;SDS011;15675;52.870;-1.416;2023-04-07T06:54:18;9.90;;;4.43;;
28447;SDS011;15675;52.870;-1.416;2023-04-07T06:56:43;12.15;;;4.47;;
28447;SDS011;15675;52.870;-1.416;2023-04-07T06:59:09;15.95;;;5.30;;
28447;SDS011;15675;52.870;-1.416;2023-04-07T07:01:35;14.68;;;4.72;;
28447;SDS011;15675;52.870;-1.416;2023-04-07T07:04:02;13.10;;;4.82;;
28447;SDS011;15675;52.870;-1.416;2023-04-07T07:06:29;12.05;;;4.57;;
28447;SDS011;15675;52.870;-1.416;2023-04-07T07:08:55;14.98;;;4.43;;
28447;SDS011;15675;52.870;-1.416;2023-04-07T07:11:21;14.23;;;4.57;;
28447;SDS011;15675;52.870;-1.416;2023-04-07T07:13:47;13.75;;;5.10;;
28447;SDS011;15675;52.870;-1.416;2023-04-07T07:16:12;13.70;;;4.07;;
28447;SDS011;15675;52.870;-1.416;2023-04-07T07:18:38;13.52;;;3.83;;
28447;SDS011;15675;52.870;-1.416;2023-04-07T07:21:03;16.05;;;4.10;;
28447;SDS011;15675;52.870;-1.416;2023-04-07T07:23:29;18.55;;;5.45;;
28447;SDS011;15675;52.870;-1.416;2023-04-07T07:25:54;18.67;;;4.55;;
28447;SDS011;15675;52.870;-1.416;2023-04-07T07:28:20;17.25;;;4.57;;
28447;SDS011;15675;52.870;-1.416;2023-04-07T07:30:46;15.23;;;4.45;;
28447;SDS011;15675;52.870;-1.416;2023-04-07T07:33:12;15.90;;;4.13;;
28447;SDS011;15675;52.870;-1.416;2023-04-07T07:35:37;9.63;;;3.70;;
28447;SDS011;15675;52.870;-1.416;2023-04-07T07:38:04;9.38;;;3.28;;
28447;SDS011;15675;52.870;-1.416;2023-04-07T07:40:30;16.30;;;4.47;;
28447;SDS011;15675;52.870;-1.416;2023-04-07T07:42:56;13.98;;;3.80;;
28447;SDS011;15675;52.870;-1.416;2023-04-07T07:45:22;11.00;;;3.33;;
28447;SDS011;15675;52.870;-1.416;2023-04-07T07:47:48;7.25;;;2.80;;
28447;SDS011;15675;52.870;-1.416;2023-04-07T07:50:13;13.18;;;3.20;;
28447;SDS011;15675;52.870;-1.416;2023-04-07T07:52:39;13.85;;;2.88;;
28447;SDS011;15675;52.870;-1.416;2023-04-07T07:55:04;8.70;;;2.85;;
28447;SDS011;15675;52.870;-1.416;2023-04-07T07:57:30;10.45;;;3.28;;
28447;SDS011;15675;52.870;-1.416;2023-04-07T07:59:56;8.95;;;3.25;;
28447;SDS011;15675;52.870;-1.416;2023-04-07T08:02:21;13.75;;;3.00;;
28447;SDS011;15675;52.870;-1.416;2023-04-07T08:04:50;12.45;;;2.90;;
28447;SDS011;15675;52.870;-1.416;2023-04-07T08:07:16;14.68;;;3.13;;
28447;SDS011;15675;52.870;-1.416;2023-04-07T08:09:41;12.93;;;3.22;;
28447;SDS011;15675;52.870;-1.416;2023-04-07T08:12:07;7.63;;;2.55;;
28447;SDS011;15675;52.870;-1.416;2023-04-07T08:14:32;11.13;;;3.05;;
28447;SDS011;15675;52.870;-1.416;2023-04-07T08:16:58;10.15;;;3.70;;
28447;SDS011;15675;52.870;-1.416;2023-04-07T08:19:23;8.60;;;2.95;;
28447;SDS011;15675;52.870;-1.416;2023-04-07T08:21:49;6.60;;;2.40;;
28447;SDS011;15675;52.870;-1.416;2023-04-07T08:24:14;8.32;;;2.13;;
28447;SDS011;15675;52.870;-1.416;2023-04-07T08:26:40;8.40;;;3.08;;
28447;SDS011;15675;52.870;-1.416;2023-04-07T08:29:06;8.02;;;2.05;;
28447;SDS011;15675;52.870;-1.416;2023-04-07T08:31:31;7.13;;;3.30;;
28447;SDS011;15675;52.870;-1.416;2023-04-07T08:33:57;9.48;;;2.22;;
28447;SDS011;15675;52.870;-1.416;2023-04-07T08:36:23;7.63;;;2.10;;
28447;SDS011;15675;52.870;-1.416;2023-04-07T08:38:49;9.32;;;2.45;;
28447;SDS011;15675;52.870;-1.416;2023-04-07T08:41:16;7.75;;;2.30;;
28447;SDS011;15675;52.870;-1.416;2023-04-07T08:43:44;11.95;;;2.95;;
28447;SDS011;15675;52.870;-1.416;2023-04-07T08:46:13;13.68;;;2.53;;
28447;SDS011;15675;52.870;-1.416;2023-04-07T08:48:39;6.80;;;1.70;;
28447;SDS011;15675;52.870;-1.416;2023-04-07T08:51:08;7.82;;;1.65;;
28447;SDS011;15675;52.870;-1.416;2023-04-07T08:53:42;4.40;;;1.52;;
28447;SDS011;15675;52.870;-1.416;2023-04-07T08:56:16;6.45;;;1.42;;
28447;SDS011;15675;52.870;-1.416;2023-04-07T08:58:43;5.97;;;1.15;;
28447;SDS011;15675;52.870;-1.416;2023-04-07T09:01:10;13.55;;;1.60;;
28447;SDS011;15675;52.870;-1.416;2023-04-07T09:03:35;5.85;;;2.00;;
28447;SDS011;15675;52.870;-1.416;2023-04-07T09:06:02;6.60;;;1.30;;
28447;SDS011;15675;52.870;-1.416;2023-04-07T09:08:28;4.70;;;1.48;;
28447;SDS011;15675;52.870;-1.416;2023-04-07T09:10:55;3.65;;;1.33;;
28447;SDS011;15675;52.870;-1.416;2023-04-07T09:13:23;4.97;;;1.40;;
28447;SDS011;15675;52.870;-1.416;2023-04-07T09:15:49;2.22;;;1.02;;
28447;SDS011;15675;52.870;-1.416;2023-04-07T09:18:14;4.90;;;1.63;;
28447;SDS011;15675;52.870;-1.416;2023-04-07T09:23:27;5.38;;;1.10;;
28447;SDS011;15675;52.870;-1.416;2023-04-07T09:25:56;5.10;;;1.25;;
28447;SDS011;15675;52.870;-1.416;2023-04-07T09:32:34;7.43;;;1.58;;
28447;SDS011;15675;52.870;-1.416;2023-04-07T09:38:07;6.75;;;1.63;;
28447;SDS011;15675;52.870;-1.416;2023-04-07T09:40:52;7.15;;;1.65;;
28447;SDS011;15675;52.870;-1.416;2023-04-07T09:43:55;4.07;;;1.40;;
28447;SDS011;15675;52.870;-1.416;2023-04-07T09:46:52;4.97;;;1.33;;
28447;SDS011;15675;52.870;-1.416;2023-04-07T09:49:48;8.77;;;1.60;;
28447;SDS011;15675;52.870;-1.416;2023-04-07T09:52:52;6.40;;;2.35;;
28447;SDS011;15675;52.870;-1.416;2023-04-07T09:55:37;5.47;;;1.60;;
28447;SDS011;15675;52.870;-1.416;2023-04-07T09:58:05;4.65;;;1.60;;
28447;SDS011;15675;52.870;-1.416;2023-04-07T10:00:31;4.13;;;1.88;;
28447;SDS011;15675;52.870;-1.416;2023-04-07T10:02:56;5.55;;;2.00;;
28447;SDS011;15675;52.870;-1.416;2023-04-07T10:05:23;7.43;;;2.03;;
28447;SDS011;15675;52.870;-1.416;2023-04-07T10:07:49;3.75;;;1.67;;
28447;SDS011;15675;52.870;-1.416;2023-04-07T10:10:15;5.55;;;1.85;;
28447;SDS011;15675;52.870;-1.416;2023-04-07T10:12:41;3.85;;;1.88;;
28447;SDS011;15675;52.870;-1.416;2023-04-07T10:15:07;8.82;;;2.10;;
28447;SDS011;15675;52.870;-1.416;2023-04-07T10:17:36;9.50;;;2.10;;
28447;SDS011;15675;52.870;-1.416;2023-04-07T10:20:04;4.97;;;1.95;;
28447;SDS011;15675;52.870;-1.416;2023-04-07T10:22:31;7.70;;;1.98;;
28447;SDS011;15675;52.870;-1.416;2023-04-07T10:25:03;5.95;;;1.75;;
28447;SDS011;15675;52.870;-1.416;2023-04-07T10:27:41;4.20;;;1.50;;
28447;SDS011;15675;52.870;-1.416;2023-04-07T10:30:16;12.05;;;1.60;;
28447;SDS011;15675;52.870;-1.416;2023-04-07T10:32:45;4.95;;;1.63;;
28447;SDS011;15675;52.870;-1.416;2023-04-07T10:35:16;6.93;;;1.70;;
28447;SDS011;15675;52.870;-1.416;2023-04-07T10:38:08;4.50;;;1.63;;
28447;SDS011;15675;52.870;-1.416;2023-04-07T10:40:32;5.85;;;1.65;;
28447;SDS011;15675;52.870;-1.416;2023-04-07T10:42:58;5.35;;;1.80;;
28447;SDS011;15675;52.870;-1.416;2023-04-07T10:48:21;3.95;;;1.55;;
28447;SDS011;15675;52.870;-1.416;2023-04-07T10:53:31;6.28;;;1.67;;
28447;SDS011;15675;52.870;-1.416;2023-04-07T10:55:58;5.55;;;1.20;;
28447;SDS011;15675;52.870;-1.416;2023-04-07T10:58:24;4.72;;;1.45;;
28447;SDS011;15675;52.870;-1.416;2023-04-07T11:01:15;4.53;;;1.27;;
28447;SDS011;15675;52.870;-1.416;2023-04-07T11:03:55;4.80;;;1.35;;
28447;SDS011;15675;52.870;-1.416;2023-04-07T11:06:22;6.63;;;1.30;;
28447;SDS011;15675;52.870;-1.416;2023-04-07T11:08:48;4.75;;;1.05;;
28447;SDS011;15675;52.870;-1.416;2023-04-07T11:11:16;6.53;;;1.50;;
28447;SDS011;15675;52.870;-1.416;2023-04-07T11:13:46;3.97;;;0.90;;
28447;SDS011;15675;52.870;-1.416;2023-04-07T11:16:13;8.65;;;1.38;;
28447;SDS011;15675;52.870;-1.416;2023-04-07T11:18:40;5.00;;;1.10;;
28447;SDS011;15675;52.870;-1.416;2023-04-07T11:21:07;2.63;;;1.00;;
28447;SDS011;15675;52.870;-1.416;2023-04-07T11:23:52;3.08;;;1.10;;
28447;SDS011;15675;52.870;-1.416;2023-04-07T11:31:20;4.80;;;1.10;;
28447;SDS011;15675;52.870;-1.416;2023-04-07T11:33:50;1.77;;;0.77;;
28447;SDS011;15675;52.870;-1.416;2023-04-07T11:36:39;6.32;;;0.90;;
28447;SDS011;15675;52.870;-1.416;2023-04-07T11:39:16;3.70;;;0.82;;
28447;SDS011;15675;52.870;-1.416;2023-04-07T11:41:45;2.70;;;0.90;;
28447;SDS011;15675;52.870;-1.416;2023-04-07T11:44:12;2.72;;;0.98;;
28447;SDS011;15675;52.870;-1.416;2023-04-07T11:46:57;3.38;;;0.82;;
28447;SDS011;15675;52.870;-1.416;2023-04-07T11:49:25;2.78;;;0.93;;
28447;SDS011;15675;52.870;-1.416;2023-04-07T11:51:57;2.53;;;0.82;;
28447;SDS011;15675;52.870;-1.416;2023-04-07T11:54:25;8.38;;;1.10;;
28447;SDS011;15675;52.870;-1.416;2023-04-07T11:56:50;4.00;;;0.88;;
28447;SDS011;15675;52.870;-1.416;2023-04-07T11:59:20;2.25;;;0.85;;
28447;SDS011;15675;52.870;-1.416;2023-04-07T12:01:47;4.53;;;0.85;;
28447;SDS011;15675;52.870;-1.416;2023-04-07T12:04:14;4.90;;;0.82;;
28447;SDS011;15675;52.870;-1.416;2023-04-07T12:06:42;4.40;;;0.93;;
28447;SDS011;15675;52.870;-1.416;2023-04-07T12:09:26;2.03;;;0.73;;
28447;SDS011;15675;52.870;-1.416;2023-04-07T12:11:56;2.85;;;1.13;;
28447;SDS011;15675;52.870;-1.416;2023-04-07T12:14:26;6.68;;;1.00;;
28447;SDS011;15675;52.870;-1.416;2023-04-07T12:16:52;2.53;;;0.73;;
28447;SDS011;15675;52.870;-1.416;2023-04-07T12:19:21;5.65;;;0.73;;
28447;SDS011;15675;52.870;-1.416;2023-04-07T12:21:47;2.45;;;0.73;;
28447;SDS011;15675;52.870;-1.416;2023-04-07T12:24:13;2.80;;;0.60;;
28447;SDS011;15675;52.870;-1.416;2023-04-07T12:26:38;2.28;;;0.50;;
28447;SDS011;15675;52.870;-1.416;2023-04-07T12:29:04;3.30;;;0.70;;
28447;SDS011;15675;52.870;-1.416;2023-04-07T12:31:30;2.03;;;0.70;;
28447;SDS011;15675;52.870;-1.416;2023-04-07T12:33:57;4.90;;;1.13;;
28447;SDS011;15675;52.870;-1.416;2023-04-07T12:36:23;2.45;;;0.85;;
28447;SDS011;15675;52.870;-1.416;2023-04-07T12:38:50;2.50;;;0.80;;
28447;SDS011;15675;52.870;-1.416;2023-04-07T12:41:15;2.97;;;0.60;;
28447;SDS011;15675;52.870;-1.416;2023-04-07T12:43:41;1.65;;;0.50;;
28447;SDS011;15675;52.870;-1.416;2023-04-07T12:46:06;2.25;;;0.50;;
28447;SDS011;15675;52.870;-1.416;2023-04-07T12:51:14;4.40;;;0.80;;
28447;SDS011;15675;52.870;-1.416;2023-04-07T12:53:40;2.75;;;0.80;;
28447;SDS011;15675;52.870;-1.416;2023-04-07T12:56:06;3.45;;;0.68;;
28447;SDS011;15675;52.870;-1.416;2023-04-07T12:58:31;2.67;;;0.50;;
28447;SDS011;15675;52.870;-1.416;2023-04-07T13:00:57;2.30;;;0.60;;
28447;SDS011;15675;52.870;-1.416;2023-04-07T13:03:22;3.58;;;0.60;;
28447;SDS011;15675;52.870;-1.416;2023-04-07T13:05:48;3.13;;;0.50;;
28447;SDS011;15675;52.870;-1.416;2023-04-07T13:08:14;3.38;;;0.82;;
28447;SDS011;15675;52.870;-1.416;2023-04-07T13:10:39;3.83;;;0.82;;
28447;SDS011;15675;52.870;-1.416;2023-04-07T13:13:05;3.92;;;0.75;;
28447;SDS011;15675;52.870;-1.416;2023-04-07T13:15:31;1.42;;;0.57;;
28447;SDS011;15675;52.870;-1.416;2023-04-07T13:17:56;3.38;;;0.60;;
28447;SDS011;15675;52.870;-1.416;2023-04-07T13:20:22;3.00;;;0.73;;
28447;SDS011;15675;52.870;-1.416;2023-04-07T13:22:48;1.63;;;0.55;;
28447;SDS011;15675;52.870;-1.416;2023-04-07T13:25:13;1.63;;;0.55;;
28447;SDS011;15675;52.870;-1.416;2023-04-07T13:27:39;3.15;;;0.50;;
28447;SDS011;15675;52.870;-1.416;2023-04-07T13:30:04;1.70;;;0.50;;
28447;SDS011;15675;52.870;-1.416;2023-04-07T13:32:30;3.03;;;0.60;;
28447;SDS011;15675;52.870;-1.416;2023-04-07T13:34:56;2.25;;;0.65;;
28447;SDS011;15675;52.870;-1.416;2023-04-07T13:37:22;2.15;;;0.80;;
28447;SDS011;15675;52.870;-1.416;2023-04-07T13:39:47;3.20;;;0.70;;
28447;SDS011;15675;52.870;-1.416;2023-04-07T13:42:13;1.52;;;0.50;;
28447;SDS011;15675;52.870;-1.416;2023-04-07T13:44:41;1.95;;;0.90;;
28447;SDS011;15675;52.870;-1.416;2023-04-07T13:47:09;1.92;;;0.57;;
28447;SDS011;15675;52.870;-1.416;2023-04-07T13:49:35;1.85;;;0.52;;
28447;SDS011;15675;52.870;-1.416;2023-04-07T13:52:01;2.92;;;0.60;;
28447;SDS011;15675;52.870;-1.416;2023-04-07T13:54:26;2.53;;;0.68;;
28447;SDS011;15675;52.870;-1.416;2023-04-07T13:56:52;3.15;;;0.70;;
28447;SDS011;15675;52.870;-1.416;2023-04-07T13:59:18;1.98;;;0.60;;
28447;SDS011;15675;52.870;-1.416;2023-04-07T14:01:43;1.55;;;0.60;;
28447;SDS011;15675;52.870;-1.416;2023-04-07T14:04:09;1.83;;;0.60;;
28447;SDS011;15675;52.870;-1.416;2023-04-07T14:06:34;2.13;;;0.50;;
28447;SDS011;15675;52.870;-1.416;2023-04-07T14:09:01;1.08;;;0.52;;
28447;SDS011;15675;52.870;-1.416;2023-04-07T14:11:27;1.30;;;0.50;;
28447;SDS011;15675;52.870;-1.416;2023-04-07T14:13:53;2.00;;;0.70;;
28447;SDS011;15675;52.870;-1.416;2023-04-07T14:16:21;1.77;;;0.60;;
28447;SDS011;15675;52.870;-1.416;2023-04-07T14:18:46;4.75;;;0.98;;
28447;SDS011;15675;52.870;-1.416;2023-04-07T14:21:13;1.85;;;0.90;;
28447;SDS011;15675;52.870;-1.416;2023-04-07T14:23:39;2.10;;;0.60;;
28447;SDS011;15675;52.870;-1.416;2023-04-07T14:26:09;2.00;;;0.50;;
28447;SDS011;15675;52.870;-1.416;2023-04-07T14:28:36;2.35;;;0.63;;
28447;SDS011;15675;52.870;-1.416;2023-04-07T14:31:01;3.15;;;0.65;;
28447;SDS011;15675;52.870;-1.416;2023-04-07T14:33:27;2.67;;;0.80;;
28447;SDS011;15675;52.870;-1.416;2023-04-07T14:35:53;2.83;;;0.82;;
28447;SDS011;15675;52.870;-1.416;2023-04-07T14:38:18;1.73;;;0.60;;
28447;SDS011;15675;52.870;-1.416;2023-04-07T14:40:48;2.67;;;0.65;;
28447;SDS011;15675;52.870;-1.416;2023-04-07T14:43:14;3.70;;;0.75;;
28447;SDS011;15675;52.870;-1.416;2023-04-07T14:45:40;1.10;;;0.68;;
28447;SDS011;15675;52.870;-1.416;2023-04-07T14:48:05;1.77;;;0.75;;
28447;SDS011;15675;52.870;-1.416;2023-04-07T14:50:34;3.45;;;0.80;;
28447;SDS011;15675;52.870;-1.416;2023-04-07T14:52:59;2.47;;;0.77;;
28447;SDS011;15675;52.870;-1.416;2023-04-07T14:55:25;5.40;;;0.70;;
28447;SDS011;15675;52.870;-1.416;2023-04-07T14:57:50;1.42;;;0.63;;
28447;SDS011;15675;52.870;-1.416;2023-04-07T15:00:16;3.20;;;0.70;;
28447;SDS011;15675;52.870;-1.416;2023-04-07T15:02:42;3.55;;;0.88;;